createdAt,value
2019-03-05T00:00:38.242Z,1.17
2019-03-05T00:03:05.219Z,1.23
2019-03-05T00:05:32.316Z,0.83
2019-03-05T00:07:59.217Z,1.30
2019-03-05T00:10:26.309Z,1.63
2019-03-05T00:12:53.282Z,1.10
2019-03-05T00:15:23.440Z,1.43
2019-03-05T00:17:50.224Z,1.60
2019-03-05T00:20:17.225Z,1.70
2019-03-05T00:22:44.205Z,1.43
2019-03-05T00:25:16.271Z,1.17
2019-03-05T00:28:01.704Z,1.50
2019-03-05T00:30:38.793Z,1.23
2019-03-05T00:33:41.969Z,0.93
2019-03-05T00:36:12.847Z,1.07
2019-03-05T00:39:34.045Z,1.00
2019-03-05T00:42:44.481Z,0.93
2019-03-05T00:46:05.390Z,1.37
2019-03-05T00:49:35.482Z,0.97
2019-03-05T00:52:12.757Z,1.07
2019-03-05T00:55:05.914Z,0.90
2019-03-05T00:57:42.768Z,1.00
2019-03-05T01:00:26.389Z,1.57
2019-03-05T01:03:03.790Z,1.20
2019-03-05T01:05:44.682Z,1.43
2019-03-05T01:08:11.658Z,1.37
2019-03-05T01:10:39.448Z,1.37
2019-03-05T01:13:06.611Z,1.20
2019-03-05T01:15:33.611Z,1.30
2019-03-05T01:18:00.604Z,0.80
2019-03-05T01:20:27.608Z,1.23
2019-03-05T01:22:54.589Z,1.47
2019-03-05T01:25:25.246Z,0.83
2019-03-05T01:27:52.117Z,1.30
2019-03-05T01:30:44.133Z,1.30
2019-03-05T01:33:13.035Z,1.10
2019-03-05T01:35:45.720Z,1.40
2019-03-05T01:38:12.608Z,0.77
2019-03-05T01:40:59.262Z,1.10
2019-03-05T01:43:26.242Z,1.37
2019-03-05T01:45:53.133Z,1.40
2019-03-05T01:48:20.009Z,0.90
2019-03-05T01:50:46.807Z,1.27
2019-03-05T01:53:13.586Z,1.47
2019-03-05T01:55:40.356Z,0.93
2019-03-05T01:58:07.446Z,1.00
2019-03-05T02:00:35.034Z,1.57
2019-03-05T02:03:02.045Z,1.27
2019-03-05T02:05:29.012Z,1.20
2019-03-05T02:07:56.425Z,0.83
2019-03-05T02:10:23.620Z,0.70
2019-03-05T02:12:50.614Z,1.00
2019-03-05T02:15:17.588Z,0.90
2019-03-05T02:17:44.489Z,0.83
2019-03-05T02:20:17.385Z,1.30
2019-03-05T02:22:48.229Z,1.00
2019-03-05T02:25:28.276Z,0.90
2019-03-05T02:28:29.463Z,1.17
2019-03-05T02:31:46.343Z,1.40
2019-03-05T02:34:57.029Z,1.23
2019-03-05T02:37:52.740Z,1.97
2019-03-05T02:40:43.009Z,0.90
2019-03-05T02:43:48.930Z,0.80
2019-03-05T02:46:40.630Z,1.17
2019-03-05T02:49:36.359Z,1.27
2019-03-05T02:52:28.682Z,0.77
2019-03-05T02:55:26.375Z,0.90
2019-03-05T02:57:52.457Z,0.80
2019-03-05T03:00:29.442Z,0.90
2019-03-05T03:02:59.993Z,2.87
2019-03-05T03:05:32.090Z,0.90
2019-03-05T03:07:59.098Z,1.13
2019-03-05T03:10:26.067Z,2.37
2019-03-05T03:12:53.426Z,1.70
2019-03-05T03:15:20.431Z,0.97
2019-03-05T03:17:48.534Z,1.03
2019-03-05T03:20:17.561Z,0.87
2019-03-05T03:22:44.650Z,0.80
2019-03-05T03:25:21.920Z,0.87
2019-03-05T03:27:48.917Z,0.80
2019-03-05T03:30:20.608Z,1.07
2019-03-05T03:32:47.490Z,1.10
2019-03-05T03:35:14.580Z,0.70
2019-03-05T03:37:41.471Z,1.00
2019-03-05T03:40:11.092Z,1.67
2019-03-05T03:42:38.097Z,1.00
2019-03-05T03:45:06.488Z,1.13
2019-03-05T03:47:33.471Z,1.10
2019-03-05T03:50:00.529Z,1.07
2019-03-05T03:52:27.543Z,1.30
2019-03-05T03:54:54.534Z,0.90
2019-03-05T03:57:21.321Z,1.23
2019-03-05T03:59:48.313Z,1.33
2019-03-05T04:02:15.205Z,1.97
2019-03-05T04:04:42.193Z,6.37
2019-03-05T04:07:09.181Z,2.70
2019-03-05T04:09:36.275Z,1.57
2019-03-05T04:12:03.254Z,1.47
2019-03-05T04:14:30.170Z,1.00
2019-03-05T04:16:56.964Z,1.17
2019-03-05T04:19:27.636Z,1.50
2019-03-05T04:21:54.521Z,1.40
2019-03-05T04:24:21.404Z,1.23
2019-03-05T04:26:48.186Z,1.30
2019-03-05T04:29:14.969Z,1.30
2019-03-05T04:31:41.847Z,1.53
2019-03-05T04:34:08.626Z,0.97
2019-03-05T04:36:35.492Z,1.27
2019-03-05T04:39:06.186Z,1.10
2019-03-05T04:41:33.121Z,1.83
2019-03-05T04:44:00.018Z,1.50
2019-03-05T04:46:44.398Z,1.20
2019-03-05T04:49:26.990Z,1.10
2019-03-05T04:51:57.309Z,1.10
2019-03-05T04:54:24.208Z,1.87
2019-03-05T04:56:50.960Z,0.93
2019-03-05T04:59:17.755Z,1.73
2019-03-05T05:01:44.545Z,1.40
2019-03-05T05:04:11.338Z,1.40
2019-03-05T05:06:38.113Z,1.33
2019-03-05T05:09:05.634Z,0.80
2019-03-05T05:11:32.449Z,1.13
2019-03-05T05:13:59.325Z,1.90
2019-03-05T05:16:26.097Z,1.27
2019-03-05T05:18:52.880Z,1.10
2019-03-05T05:21:19.780Z,1.20
2019-03-05T05:23:46.554Z,0.97
2019-03-05T05:26:13.465Z,0.60
2019-03-05T05:28:40.255Z,1.17
2019-03-05T05:31:07.068Z,1.07
2019-03-05T05:33:33.867Z,0.83
2019-03-05T05:36:00.658Z,1.07
2019-03-05T05:38:27.531Z,0.53
2019-03-05T05:40:54.312Z,1.00
2019-03-05T05:43:23.813Z,1.20
2019-03-05T05:45:51.050Z,1.10
2019-03-05T05:48:18.054Z,0.97
2019-03-05T05:50:45.054Z,1.03
2019-03-05T05:53:11.941Z,0.70
2019-03-05T05:55:38.926Z,0.70
2019-03-05T05:58:05.959Z,1.13
2019-03-05T06:00:33.977Z,0.90
2019-03-05T06:03:00.896Z,0.83
2019-03-05T06:05:27.793Z,0.70
2019-03-05T06:07:54.725Z,0.90
2019-03-05T06:10:21.625Z,1.07
2019-03-05T06:12:48.425Z,0.80
2019-03-05T06:15:15.429Z,0.90
2019-03-05T06:17:42.405Z,1.20
2019-03-05T06:20:10.086Z,1.00
2019-03-05T06:22:37.019Z,1.30
2019-03-05T06:25:04.606Z,1.47
2019-03-05T06:27:31.538Z,1.63
2019-03-05T06:29:58.339Z,0.60
2019-03-05T06:32:25.111Z,0.90
2019-03-05T06:34:52.000Z,1.10
2019-03-05T06:37:18.778Z,0.70
2019-03-05T06:39:45.680Z,1.17
2019-03-05T06:42:12.570Z,2.00
2019-03-05T06:44:39.551Z,0.87
2019-03-05T06:47:06.357Z,2.03
2019-03-05T06:49:33.120Z,2.27
2019-03-05T06:52:00.018Z,0.60
2019-03-05T06:54:26.782Z,0.77
2019-03-05T06:56:53.548Z,1.23
2019-03-05T06:59:20.428Z,1.10
2019-03-05T07:01:47.306Z,1.90
2019-03-05T07:04:14.068Z,2.10
2019-03-05T07:06:54.286Z,3.80
2019-03-05T07:09:59.017Z,1.37
2019-03-05T07:12:59.635Z,1.47
2019-03-05T07:16:10.039Z,1.20
2019-03-05T07:19:07.228Z,0.87
2019-03-05T07:22:08.640Z,1.23
2019-03-05T07:24:43.641Z,0.40
2019-03-05T07:27:10.728Z,1.30
2019-03-05T07:29:38.352Z,3.20
2019-03-05T07:32:05.323Z,0.73
2019-03-05T07:34:32.964Z,0.80
2019-03-05T07:36:59.858Z,2.23
2019-03-05T07:39:26.734Z,0.63
2019-03-05T07:41:53.700Z,0.60
2019-03-05T07:44:20.562Z,1.03
2019-03-05T07:46:47.593Z,0.73
2019-03-05T07:49:14.506Z,1.03
2019-03-05T07:51:41.485Z,0.60
2019-03-05T07:54:08.352Z,0.63
2019-03-05T07:56:35.249Z,0.73
2019-03-05T07:59:02.025Z,2.47
2019-03-05T08:01:28.893Z,2.00
2019-03-05T08:03:55.673Z,0.90
2019-03-05T08:06:22.551Z,0.90
2019-03-05T08:09:26.357Z,0.90
2019-03-05T08:11:53.660Z,0.60
2019-03-05T08:14:52.877Z,0.70
2019-03-05T08:17:20.278Z,0.60
2019-03-05T08:19:47.050Z,0.60
2019-03-05T08:22:14.043Z,0.90
2019-03-05T08:24:40.818Z,0.60
2019-03-05T08:27:07.801Z,0.70
2019-03-05T08:29:34.708Z,0.60
2019-03-05T08:32:01.684Z,0.50
2019-03-05T08:34:28.455Z,0.70
2019-03-05T08:36:55.233Z,0.70
2019-03-05T08:39:22.210Z,0.50
2019-03-05T08:41:49.198Z,0.60
2019-03-05T08:44:16.093Z,0.60
2019-03-05T08:46:42.858Z,0.70
2019-03-05T08:49:09.638Z,0.30
2019-03-05T08:51:36.621Z,0.37
2019-03-05T08:54:03.517Z,0.50
2019-03-05T08:56:30.289Z,0.77
2019-03-05T08:58:57.180Z,0.50
2019-03-05T09:01:23.982Z,0.40
2019-03-05T09:03:50.861Z,0.40
2019-03-05T09:06:17.844Z,0.43
2019-03-05T09:08:44.713Z,0.50
2019-03-05T09:11:11.838Z,0.33
2019-03-05T09:13:38.865Z,0.63
2019-03-05T09:16:06.062Z,0.50
2019-03-05T09:18:32.954Z,0.70
2019-03-05T09:20:59.825Z,0.37
2019-03-05T09:23:26.801Z,0.40
2019-03-05T09:25:53.573Z,0.80
2019-03-05T09:28:20.731Z,7.33
2019-03-05T09:30:47.730Z,0.80
2019-03-05T09:33:14.704Z,0.97
2019-03-05T09:35:41.481Z,6.23
2019-03-05T09:38:08.489Z,23.97
2019-03-05T09:40:35.515Z,1.20
2019-03-05T09:43:02.652Z,0.77
2019-03-05T09:45:29.803Z,0.63
2019-03-05T09:47:57.065Z,0.67
2019-03-05T09:50:24.037Z,0.70
2019-03-05T09:52:55.036Z,0.87
2019-03-05T09:55:19.978Z,0.80
2019-03-05T09:57:48.878Z,0.67
2019-03-05T10:00:17.516Z,0.93
2019-03-05T10:02:44.510Z,0.70
2019-03-05T10:05:12.624Z,1.17
2019-03-05T10:07:39.489Z,0.93
2019-03-05T10:10:08.453Z,0.87
2019-03-05T10:12:35.431Z,1.07
2019-03-05T10:15:03.269Z,0.77
2019-03-05T10:17:37.626Z,0.70
2019-03-05T10:19:59.035Z,0.73
2019-03-05T10:22:26.018Z,0.70
2019-03-05T10:24:53.005Z,0.60
2019-03-05T10:27:20.014Z,0.80
2019-03-05T10:29:46.824Z,0.60
2019-03-05T10:32:13.797Z,0.90
2019-03-05T10:34:40.688Z,0.50
2019-03-05T10:37:12.682Z,0.83
2019-03-05T10:39:36.472Z,0.83
2019-03-05T10:42:03.465Z,1.03
2019-03-05T10:44:30.851Z,0.83
2019-03-05T10:46:57.835Z,1.00
2019-03-05T10:49:24.720Z,0.90
2019-03-05T10:51:51.605Z,1.00
2019-03-05T10:54:18.477Z,1.00
2019-03-05T10:56:45.348Z,1.00
2019-03-05T10:59:12.322Z,0.70
2019-03-05T11:01:40.473Z,1.00
2019-03-05T11:04:07.466Z,0.77
2019-03-05T11:06:34.863Z,1.30
2019-03-05T11:09:01.860Z,0.80
2019-03-05T11:11:28.842Z,1.07
2019-03-05T11:13:55.715Z,0.80
2019-03-05T11:16:30.422Z,1.23
2019-03-05T11:18:51.578Z,0.70
2019-03-05T11:21:18.391Z,0.67
2019-03-05T11:23:45.265Z,0.60
2019-03-05T11:26:12.248Z,0.87
2019-03-05T11:28:39.113Z,0.80
2019-03-05T11:31:06.597Z,0.60
2019-03-05T11:33:33.493Z,0.77
2019-03-05T11:36:00.372Z,0.40
2019-03-05T11:38:27.382Z,0.50
2019-03-05T11:40:54.264Z,0.40
2019-03-05T11:43:21.148Z,0.40
2019-03-05T11:45:48.136Z,0.40
2019-03-05T11:48:15.582Z,0.50
2019-03-05T11:50:43.121Z,0.33
2019-03-05T11:53:13.162Z,0.33
2019-03-05T11:55:40.166Z,0.20
2019-03-05T11:58:07.162Z,0.30
2019-03-05T12:00:45.261Z,0.23
2019-03-05T12:03:12.162Z,0.57
2019-03-05T12:05:39.153Z,0.60
2019-03-05T12:08:06.137Z,0.20
2019-03-05T12:10:33.119Z,0.43
2019-03-05T12:13:00.102Z,1.10
2019-03-05T12:15:27.252Z,0.73
2019-03-05T12:17:54.230Z,0.20
2019-03-05T12:20:21.221Z,0.30
2019-03-05T12:22:48.217Z,0.30
2019-03-05T12:25:15.377Z,0.40
2019-03-05T12:27:42.349Z,0.37
2019-03-05T12:30:12.537Z,0.70
2019-03-05T12:32:39.525Z,0.80
2019-03-05T12:35:06.721Z,0.83
2019-03-05T12:37:33.615Z,0.50
2019-03-05T12:40:00.409Z,0.50
2019-03-05T12:42:27.302Z,0.53
2019-03-05T12:44:54.301Z,0.47
2019-03-05T12:47:21.298Z,0.30
2019-03-05T12:49:48.181Z,0.40
2019-03-05T12:52:15.076Z,0.53
2019-03-05T12:54:41.958Z,0.60
2019-03-05T12:57:08.937Z,0.50
2019-03-05T12:59:35.813Z,0.80
2019-03-05T13:02:02.809Z,0.70
2019-03-05T13:04:29.685Z,0.40
2019-03-05T13:06:56.557Z,0.33
2019-03-05T13:09:23.426Z,0.37
2019-03-05T13:11:50.953Z,0.57
2019-03-05T13:14:18.179Z,0.63
2019-03-05T13:16:45.158Z,1.33
2019-03-05T13:19:12.032Z,0.40
2019-03-05T13:21:38.810Z,0.50
2019-03-05T13:24:05.810Z,0.70
2019-03-05T13:26:32.681Z,0.60
2019-03-05T13:28:59.569Z,0.37
2019-03-05T13:31:26.459Z,0.57
2019-03-05T13:33:53.341Z,0.70
2019-03-05T13:36:20.410Z,0.50
2019-03-05T13:38:47.357Z,0.57
2019-03-05T13:41:15.534Z,0.57
2019-03-05T13:43:43.403Z,0.60
2019-03-05T13:46:10.338Z,0.70
2019-03-05T13:49:18.016Z,0.50
2019-03-05T13:52:24.698Z,0.70
2019-03-05T13:55:33.704Z,0.40
2019-03-05T13:58:44.736Z,0.40
2019-03-05T14:01:11.962Z,0.80
2019-03-05T14:03:46.626Z,0.83
2019-03-05T14:06:50.429Z,0.50
2019-03-05T14:09:20.335Z,0.50
2019-03-05T14:11:52.021Z,1.13
2019-03-05T14:14:38.686Z,0.50
2019-03-05T14:17:25.752Z,0.50
2019-03-05T14:19:53.017Z,0.50
2019-03-05T14:22:20.154Z,0.50
2019-03-05T14:24:47.419Z,0.50
2019-03-05T14:27:14.835Z,0.57
2019-03-05T14:29:41.834Z,0.80
2019-03-05T14:32:09.482Z,0.70
2019-03-05T14:34:36.578Z,1.13
2019-03-05T14:37:03.879Z,0.70
2019-03-05T14:39:32.674Z,0.50
2019-03-05T14:42:00.728Z,0.33
2019-03-05T14:44:39.127Z,0.60
2019-03-05T14:46:58.780Z,1.00
2019-03-05T14:49:26.258Z,1.20
2019-03-05T14:51:53.533Z,1.83
2019-03-05T14:54:21.661Z,0.90
2019-03-05T14:56:48.972Z,1.30
2019-03-05T14:59:15.833Z,1.40
2019-03-05T15:01:42.897Z,1.60
2019-03-05T15:04:09.995Z,0.90
2019-03-05T15:06:37.042Z,0.77
2019-03-05T15:09:05.413Z,1.00
2019-03-05T15:11:32.495Z,1.20
2019-03-05T15:13:59.453Z,1.13
2019-03-05T15:16:26.252Z,1.00
2019-03-05T15:18:53.418Z,1.87
2019-03-05T15:21:20.404Z,0.80
2019-03-05T15:23:47.262Z,1.70
2019-03-05T15:26:14.113Z,3.37
2019-03-05T15:28:41.006Z,2.20
2019-03-05T15:31:08.176Z,3.57
2019-03-05T15:33:35.059Z,4.03
2019-03-05T15:36:02.016Z,2.87
2019-03-05T15:38:28.911Z,1.80
2019-03-05T15:40:55.885Z,1.73
2019-03-05T15:43:22.774Z,1.00
2019-03-05T15:45:49.565Z,0.67
2019-03-05T15:48:16.351Z,0.50
2019-03-05T15:50:43.130Z,0.93
2019-03-05T15:53:10.057Z,1.03
2019-03-05T15:55:37.132Z,0.73
2019-03-05T15:58:04.113Z,0.53
2019-03-05T16:00:31.126Z,0.50
2019-03-05T16:02:58.686Z,0.70
2019-03-05T16:05:26.227Z,0.70
2019-03-05T16:07:53.296Z,1.10
2019-03-05T16:10:20.182Z,1.00
2019-03-05T16:12:46.973Z,0.80
2019-03-05T16:15:13.987Z,0.70
2019-03-05T16:17:40.958Z,0.73
2019-03-05T16:20:09.521Z,0.70
2019-03-05T16:22:36.422Z,0.87
2019-03-05T16:25:04.209Z,1.40
2019-03-05T16:27:31.494Z,1.57
2019-03-05T16:29:58.449Z,3.23
2019-03-05T16:32:30.300Z,2.10
2019-03-05T16:35:06.480Z,0.90
2019-03-05T16:37:43.785Z,0.70
2019-03-05T16:40:23.006Z,0.90
2019-03-05T16:42:58.452Z,0.73
2019-03-05T16:45:54.074Z,6.27
2019-03-05T16:48:43.431Z,1.50
2019-03-05T16:51:27.787Z,1.00
2019-03-05T16:54:13.049Z,0.47
2019-03-05T16:56:59.706Z,1.70
2019-03-05T16:59:46.251Z,1.00
2019-03-05T17:02:36.293Z,2.00
2019-03-05T17:05:29.602Z,0.70
2019-03-05T17:08:09.036Z,1.17
2019-03-05T17:10:46.973Z,0.90
2019-03-05T17:13:13.949Z,0.60
2019-03-05T17:15:40.960Z,1.10
2019-03-05T17:18:07.953Z,0.80
2019-03-05T17:20:35.150Z,0.57
2019-03-05T17:23:03.158Z,0.70
2019-03-05T17:25:30.073Z,0.70
2019-03-05T17:27:56.867Z,0.90
2019-03-05T17:30:23.991Z,3.90
2019-03-05T17:32:50.954Z,1.20
2019-03-05T17:35:17.942Z,0.60
2019-03-05T17:37:45.218Z,0.80
2019-03-05T17:40:12.222Z,0.50
2019-03-05T17:42:39.381Z,1.20
2019-03-05T17:45:08.648Z,0.90
2019-03-05T17:47:35.638Z,0.60
2019-03-05T17:50:02.779Z,0.50
2019-03-05T17:52:29.806Z,0.73
2019-03-05T17:54:56.607Z,0.40
2019-03-05T17:57:23.385Z,0.90
2019-03-05T17:59:50.569Z,0.43
2019-03-05T18:02:17.646Z,0.80
2019-03-05T18:04:44.822Z,0.70
2019-03-05T18:07:11.704Z,0.90
2019-03-05T18:09:38.496Z,0.93
2019-03-05T18:12:05.490Z,0.90
2019-03-05T18:14:32.291Z,1.37
2019-03-05T18:16:59.290Z,1.60
2019-03-05T18:19:26.276Z,1.83
2019-03-05T18:21:53.269Z,1.00
2019-03-05T18:24:20.159Z,0.70
2019-03-05T18:26:46.945Z,0.80
2019-03-05T18:29:13.825Z,0.60
2019-03-05T18:31:40.803Z,0.87
2019-03-05T18:34:07.679Z,1.13
2019-03-05T18:36:34.564Z,1.30
2019-03-05T18:39:01.353Z,2.10
2019-03-05T18:41:28.365Z,1.17
2019-03-05T18:43:55.359Z,1.80
2019-03-05T18:46:22.279Z,3.10
2019-03-05T18:48:49.169Z,1.87
2019-03-05T18:51:16.166Z,2.50
2019-03-05T18:53:43.144Z,2.20
2019-03-05T18:56:10.057Z,3.23
2019-03-05T18:58:36.941Z,1.97
2019-03-05T19:01:04.973Z,3.47
2019-03-05T19:03:32.015Z,3.00
2019-03-05T19:05:59.005Z,4.50
2019-03-05T19:08:25.914Z,2.50
2019-03-05T19:10:53.297Z,2.23
2019-03-05T19:13:20.294Z,1.70
2019-03-05T19:15:47.505Z,1.23
2019-03-05T19:18:14.401Z,1.40
2019-03-05T19:20:41.381Z,2.07
2019-03-05T19:23:08.400Z,1.90
2019-03-05T19:25:35.708Z,2.63
2019-03-05T19:28:03.111Z,2.13
2019-03-05T19:30:31.809Z,2.87
2019-03-05T19:32:58.794Z,4.10
2019-03-05T19:35:25.807Z,3.47
2019-03-05T19:37:52.794Z,3.80
2019-03-05T19:40:22.156Z,2.50
2019-03-05T19:42:49.538Z,2.03
2019-03-05T19:45:16.525Z,2.07
2019-03-05T19:47:43.515Z,1.50
2019-03-05T19:50:12.628Z,1.87
2019-03-05T19:52:39.675Z,1.97
2019-03-05T19:55:08.134Z,1.80
2019-03-05T19:57:34.930Z,2.13
2019-03-05T20:00:02.221Z,1.67
2019-03-05T20:02:29.001Z,1.27
2019-03-05T20:04:55.773Z,1.80
2019-03-05T20:07:22.686Z,1.60
2019-03-05T20:09:49.878Z,1.53
2019-03-05T20:12:16.690Z,1.70
2019-03-05T20:14:43.573Z,1.70
2019-03-05T20:17:10.361Z,1.67
2019-03-05T20:19:37.238Z,1.50
2019-03-05T20:22:04.130Z,1.60
2019-03-05T20:24:31.114Z,4.13
2019-03-05T20:26:57.901Z,4.77
2019-03-05T20:29:24.705Z,2.10
2019-03-05T20:31:51.588Z,2.00
2019-03-05T20:34:18.386Z,1.47
2019-03-05T20:36:45.286Z,1.70
2019-03-05T20:39:12.565Z,1.60
2019-03-05T20:41:39.450Z,2.73
2019-03-05T20:44:06.334Z,2.23
2019-03-05T20:46:33.321Z,2.63
2019-03-05T20:49:00.219Z,2.80
2019-03-05T20:51:27.089Z,2.00
2019-03-05T20:53:54.391Z,2.60
2019-03-05T20:56:21.354Z,2.97
2019-03-05T20:58:48.249Z,2.60
2019-03-05T21:01:15.368Z,2.80
2019-03-05T21:03:42.354Z,3.13
2019-03-05T21:06:09.431Z,2.40
2019-03-05T21:08:36.506Z,2.63
2019-03-05T21:11:03.474Z,2.93
2019-03-05T21:13:30.450Z,4.10
2019-03-05T21:15:57.425Z,4.10
2019-03-05T21:18:24.320Z,3.97
2019-03-05T21:20:51.293Z,3.83
2019-03-05T21:23:18.077Z,3.80
2019-03-05T21:25:44.941Z,3.70
2019-03-05T21:28:11.847Z,3.13
2019-03-05T21:30:39.130Z,3.70
2019-03-05T21:33:05.933Z,3.53
2019-03-05T21:35:32.816Z,3.07
2019-03-05T21:37:59.805Z,3.23
2019-03-05T21:40:26.931Z,4.07
2019-03-05T21:42:53.809Z,3.67
2019-03-05T21:45:24.014Z,3.97
2019-03-05T21:47:50.804Z,3.73
2019-03-05T21:50:17.997Z,3.90
2019-03-05T21:52:44.881Z,4.67
2019-03-05T21:55:12.018Z,5.13
2019-03-05T21:57:38.890Z,4.87
2019-03-05T22:00:10.261Z,3.80
2019-03-05T22:02:37.247Z,4.30
2019-03-05T22:05:04.498Z,5.20
2019-03-05T22:07:31.389Z,4.83
2019-03-05T22:09:58.278Z,4.50
2019-03-05T22:12:25.364Z,5.53
2019-03-05T22:14:52.152Z,6.63
2019-03-05T22:17:19.322Z,6.90
2019-03-05T22:19:46.305Z,7.10
2019-03-05T22:22:13.196Z,8.93
2019-03-05T22:24:40.083Z,9.23
2019-03-05T22:27:06.858Z,9.97
2019-03-05T22:29:33.755Z,9.90
2019-03-05T22:32:00.822Z,10.17
2019-03-05T22:34:27.606Z,10.43
2019-03-05T22:36:54.382Z,10.97
2019-03-05T22:39:21.361Z,11.53
2019-03-05T22:41:48.234Z,11.03
2019-03-05T22:44:15.118Z,13.03
2019-03-05T22:46:42.085Z,11.90
2019-03-05T22:49:08.961Z,13.17
2019-03-05T22:51:35.837Z,12.33
2019-03-05T22:54:02.915Z,12.77
2019-03-05T22:56:29.777Z,12.37
2019-03-05T22:58:56.649Z,11.63
2019-03-05T23:01:39.458Z,12.47
2019-03-05T23:04:07.397Z,11.47
2019-03-05T23:06:34.465Z,10.57
2019-03-05T23:09:01.470Z,10.77
2019-03-05T23:11:28.616Z,10.93
2019-03-05T23:13:55.596Z,10.10
2019-03-05T23:16:22.777Z,11.67
2019-03-05T23:18:49.641Z,10.30
2019-03-05T23:21:16.622Z,11.80
2019-03-05T23:23:43.612Z,8.60
2019-03-05T23:26:11.303Z,10.63
2019-03-05T23:28:38.465Z,10.83
2019-03-05T23:31:05.928Z,10.63
2019-03-05T23:33:32.694Z,11.03
2019-03-05T23:36:00.293Z,9.90
2019-03-05T23:38:27.061Z,10.33
2019-03-05T23:40:54.046Z,10.53
2019-03-05T23:43:21.008Z,9.77
2019-03-05T23:45:47.988Z,10.27
2019-03-05T23:48:14.872Z,11.00
2019-03-05T23:50:41.752Z,12.23
2019-03-05T23:53:08.637Z,12.60
2019-03-05T23:55:35.604Z,11.57
2019-03-05T23:58:02.594Z,11.47
